Time;durP1;ratioP1;P1;durP2;ratioP2;P2;SDS_P1;SDS_P2;PMS_P1;PMS_P2;Temp;Humidity;BMP_temperature;BMP_pressure;BME280_temperature;BME280_humidity;BME280_pressure;Samples;Min_cycle;Max_cycle;Signal;HPM_P1;HPM_P2
2023/09/09 00:01:11;;;;;;;4.43;4.03;;;;;;;21.18;69.94;100673.94;5014312;28;20258;-81
2023/09/09 00:03:38;;;;;;;5.43;4.53;;;;;;;21.14;69.92;100673.25;5013911;28;20215;-80
2023/09/09 00:06:09;;;;;;;5.40;4.90;;;;;;;21.11;69.83;100672.56;5003044;28;20212;-83
2023/09/09 00:08:35;;;;;;;5.27;4.87;;;;;;;21.08;69.85;100675.44;5001752;28;20208;-82
2023/09/09 00:11:03;;;;;;;4.83;4.43;;;;;;;21.06;69.82;100677.31;5001044;28;20218;-83
2023/09/09 00:13:30;;;;;;;4.77;4.47;;;;;;;21.00;70.03;100670.56;5001780;28;20303;-82
2023/09/09 00:15:57;;;;;;;5.27;4.87;;;;;;;20.97;70.34;100665.41;5002412;28;20687;-83
2023/09/09 00:18:24;;;;;;;5.90;4.40;;;;;;;20.90;70.40;100656.97;4990098;28;20713;-83
2023/09/09 00:20:50;;;;;;;4.67;4.33;;;;;;;20.89;70.40;100662.38;4999822;28;20677;-83
2023/09/09 00:23:17;;;;;;;4.90;4.50;;;;;;;20.83;71.09;100643.22;5001390;28;20227;-83
2023/09/09 00:25:44;;;;;;;5.20;4.70;;;;;;;20.89;70.45;100644.66;5001572;28;20726;-81
2023/09/09 00:28:13;;;;;;;4.97;4.57;;;;;;;20.83;70.76;100643.22;5007232;28;20212;-83
2023/09/09 00:30:40;;;;;;;6.33;5.43;;;;;;;20.82;70.83;100640.66;5001727;28;20207;-82
2023/09/09 00:33:07;;;;;;;4.90;4.50;;;;;;;20.80;71.06;100634.59;5000500;28;20231;-82
2023/09/09 00:35:37;;;;;;;4.43;4.03;;;;;;;20.81;71.14;100638.94;4996221;28;20234;-81
2023/09/09 00:38:04;;;;;;;4.57;4.27;;;;;;;20.73;71.18;100634.09;4996197;28;20265;-80
2023/09/09 00:40:30;;;;;;;5.30;4.90;;;;;;;20.72;71.26;100631.53;4996216;28;20696;-82
2023/09/09 00:42:57;;;;;;;4.67;4.37;;;;;;;20.69;71.45;100623.72;4995742;28;20741;-81
2023/09/09 00:45:26;;;;;;;4.93;4.37;;;;;;;20.56;70.29;100642.97;4996375;28;20211;-80
2023/09/09 00:47:52;;;;;;;6.03;4.63;;;;;;;20.40;68.76;100687.25;4995777;28;20207;-80
2023/09/09 00:50:20;;;;;;;7.47;5.20;;;;;;;20.55;68.15;100715.53;4987399;28;20215;-80
2023/09/09 00:52:47;;;;;;;4.87;4.47;;;;;;;20.73;68.84;100715.47;4995625;28;20232;-80
2023/09/09 00:55:14;;;;;;;5.60;5.10;;;;;;;20.81;69.31;100699.97;4996416;28;20203;-81
2023/09/09 00:57:41;;;;;;;5.77;5.27;;;;;;;20.85;69.00;100704.13;4995657;28;20235;-80
2023/09/09 01:00:10;;;;;;;5.40;5.00;;;;;;;20.83;69.04;100701.59;4995990;28;20212;-82
2023/09/09 01:02:38;;;;;;;4.93;4.53;;;;;;;20.77;69.94;100690.47;4996061;28;20227;-82
2023/09/09 01:05:06;;;;;;;5.27;4.87;;;;;;;20.70;70.21;100675.88;5000320;28;20211;-83
2023/09/09 01:07:42;;;;;;;5.13;4.73;;;;;;;20.66;70.19;100675.19;4999991;28;20728;-82
2023/09/09 01:10:09;;;;;;;5.30;4.73;;;;;;;20.60;70.38;100660.47;4998753;28;20195;-80
2023/09/09 01:12:36;;;;;;;4.90;4.60;;;;;;;20.57;70.06;100668.59;4997765;28;20311;-80
2023/09/09 01:15:02;;;;;;;5.27;4.93;;;;;;;20.55;70.07;100661.63;4999801;28;20210;-81
2023/09/09 01:17:29;;;;;;;5.53;5.00;;;;;;;20.61;69.98;100664.84;4995941;28;20227;-81
2023/09/09 01:19:59;;;;;;;5.30;4.90;;;;;;;20.59;70.06;100677.34;4989176;28;20208;-80
2023/09/09 01:22:33;;;;;;;5.30;4.83;;;;;;;20.57;70.06;100660.63;4977543;28;20235;-81
2023/09/09 01:25:00;;;;;;;5.37;4.97;;;;;;;20.54;70.11;100667.91;4981494;28;20208;-80
2023/09/09 01:27:26;;;;;;;5.43;5.03;;;;;;;20.44;70.75;100660.44;4981670;28;20554;-82
2023/09/09 01:29:53;;;;;;;5.20;4.70;;;;;;;20.40;70.68;100658.06;4982029;28;20608;-80
2023/09/09 01:32:19;;;;;;;5.50;5.10;;;;;;;20.36;70.50;100654.72;4980942;28;20239;-82
2023/09/09 01:34:46;;;;;;;5.87;5.37;;;;;;;20.36;70.65;100656.53;4982886;28;20207;-82
2023/09/09 01:37:12;;;;;;;6.20;5.70;;;;;;;20.31;71.54;100643.50;4981852;28;20212;-80
2023/09/09 01:39:40;;;;;;;5.77;5.33;;;;;;;20.29;71.62;100628.66;4981140;28;20239;-80
2023/09/09 01:42:07;;;;;;;6.30;5.80;;;;;;;20.26;71.82;100627.03;4981103;28;20212;-81
2023/09/09 01:44:33;;;;;;;7.33;5.80;;;;;;;20.28;71.71;100618.97;4981694;28;20205;-80
2023/09/09 01:47:00;;;;;;;5.70;5.17;;;;;;;20.22;71.92;100617.53;4981526;28;20216;-81
2023/09/09 01:49:26;;;;;;;5.73;5.23;;;;;;;20.13;71.74;100621.56;4991866;28;20200;-81
2023/09/09 01:51:53;;;;;;;5.20;4.80;;;;;;;20.14;72.14;100619.78;5000114;28;20230;-80
2023/09/09 01:54:19;;;;;;;6.43;5.47;;;;;;;20.12;72.58;100600.44;5000369;28;20235;-81
2023/09/09 01:56:47;;;;;;;6.63;6.00;;;;;;;20.09;73.21;100590.00;5000334;28;20204;-80
2023/09/09 01:59:14;;;;;;;6.17;5.67;;;;;;;20.06;73.03;100580.44;5000308;28;20318;-79
2023/09/09 02:01:40;;;;;;;5.83;5.27;;;;;;;19.99;73.13;100589.66;5000111;28;20212;-82
2023/09/09 02:04:07;;;;;;;6.27;5.80;;;;;;;19.98;73.31;100580.00;4999768;28;20592;-81
2023/09/09 02:06:34;;;;;;;6.17;5.67;;;;;;;19.91;73.41;100589.25;5001490;28;20207;-80
2023/09/09 02:09:01;;;;;;;6.07;5.67;;;;;;;19.86;73.65;100583.34;5004026;28;20254;-83
2023/09/09 02:11:27;;;;;;;5.80;5.30;;;;;;;19.82;74.21;100574.69;5002626;28;20230;-81
2023/09/09 02:13:55;;;;;;;6.00;5.40;;;;;;;19.81;74.04;100559.75;5000994;28;20231;-81
2023/09/09 02:16:22;;;;;;;6.00;5.50;;;;;;;19.79;74.52;100545.75;5000493;28;20214;-81
2023/09/09 02:18:48;;;;;;;6.00;5.53;;;;;;;19.79;74.55;100556.34;4992445;28;20231;-82
2023/09/09 02:21:15;;;;;;;6.07;5.57;;;;;;;19.70;74.49;100555.03;4984818;28;20212;-82
2023/09/09 02:23:42;;;;;;;6.00;5.47;;;;;;;19.67;74.66;100551.69;4981546;28;20235;-82
2023/09/09 02:26:09;;;;;;;6.10;5.57;;;;;;;19.70;74.49;100541.78;4982346;28;20219;-81
2023/09/09 02:28:36;;;;;;;5.67;5.27;;;;;;;19.58;75.09;100545.97;4983059;28;20236;-82
2023/09/09 02:31:03;;;;;;;5.43;5.13;;;;;;;19.65;74.78;100549.13;4983589;28;20208;-81
2023/09/09 02:33:30;;;;;;;5.23;4.93;;;;;;;19.67;75.12;100539.31;4986394;28;20228;-81
2023/09/09 02:35:59;;;;;;;5.80;5.40;;;;;;;19.65;74.88;100538.53;4982033;28;20204;-81
2023/09/09 02:38:25;;;;;;;5.60;5.20;;;;;;;19.65;75.07;100535.88;4981167;28;20239;-80
2023/09/09 02:40:52;;;;;;;5.20;4.83;;;;;;;19.62;75.26;100534.28;4981260;28;20208;-81
2023/09/09 02:43:18;;;;;;;6.00;5.50;;;;;;;19.62;75.34;100533.41;4980129;28;20243;-80
2023/09/09 02:45:45;;;;;;;5.53;5.13;;;;;;;19.58;76.10;100521.25;4983667;28;20212;-82
2023/09/09 02:48:13;;;;;;;5.93;5.43;;;;;;;19.61;75.89;100510.50;4990900;28;20210;-80
2023/09/09 02:50:39;;;;;;;6.00;5.50;;;;;;;19.58;75.38;100510.66;4992323;28;20212;-82
2023/09/09 02:53:06;;;;;;;5.60;5.23;;;;;;;19.59;75.01;100526.47;5000490;28;20223;-80
2023/09/09 02:55:32;;;;;;;5.23;4.83;;;;;;;19.58;75.17;100530.09;4999754;28;20234;-82
2023/09/09 02:57:59;;;;;;;6.27;5.77;;;;;;;19.51;74.72;100541.09;5000631;28;20246;-82
2023/09/09 03:00:25;;;;;;;6.03;5.43;;;;;;;19.45;75.19;100537.81;5001007;28;20203;-80
2023/09/09 03:02:52;;;;;;;5.17;4.83;;;;;;;19.47;75.57;100527.16;5000849;28;20603;-82
2023/09/09 03:05:20;;;;;;;5.80;5.27;;;;;;;19.48;75.12;100528.00;5002031;28;20215;-82
2023/09/09 03:07:48;;;;;;;5.97;5.57;;;;;;;19.49;75.33;100532.38;5001016;28;20211;-80
2023/09/09 03:10:14;;;;;;;5.93;5.43;;;;;;;19.40;74.07;100549.59;4999393;28;20239;-80
2023/09/09 03:12:41;;;;;;;5.47;5.07;;;;;;;19.45;74.78;100551.06;4998961;28;20231;-80
2023/09/09 03:15:09;;;;;;;5.43;4.90;;;;;;;19.42;74.64;100551.25;4997825;28;20207;-79
2023/09/09 03:17:35;;;;;;;5.70;5.30;;;;;;;19.40;74.78;100549.59;5000112;28;20210;-80
2023/09/09 03:20:05;;;;;;;5.60;5.20;;;;;;;19.43;74.56;100549.44;4990275;28;20231;-80
2023/09/09 03:22:33;;;;;;;5.43;5.03;;;;;;;19.37;74.59;100545.34;4998507;28;20744;-80
2023/09/09 03:24:59;;;;;;;5.13;4.83;;;;;;;19.27;75.41;100545.94;5000799;28;20211;-81
2023/09/09 03:27:26;;;;;;;6.20;5.70;;;;;;;19.22;76.12;100527.63;5002524;28;20220;-81
2023/09/09 03:29:52;;;;;;;5.57;5.17;;;;;;;19.19;75.90;100522.50;5002360;28;20207;-82
2023/09/09 03:32:19;;;;;;;6.23;5.73;;;;;;;19.25;75.69;100522.19;5007373;28;20235;-80
2023/09/09 03:34:45;;;;;;;5.97;5.57;;;;;;;19.28;75.31;100523.78;5005902;28;20270;-79
2023/09/09 03:37:12;;;;;;;5.83;5.30;;;;;;;19.19;76.21;100520.72;4999559;28;20207;-80
2023/09/09 03:39:39;;;;;;;5.50;5.10;;;;;;;19.13;76.56;100506.97;4999714;28;20227;-80
2023/09/09 03:42:06;;;;;;;5.43;5.03;;;;;;;19.12;76.75;100489.38;4999216;28;20234;-81
2023/09/09 03:44:33;;;;;;;6.57;5.07;;;;;;;19.09;76.74;100500.09;4999681;28;20662;-81
2023/09/09 03:46:59;;;;;;;5.87;5.27;;;;;;;19.03;77.48;100473.06;4999210;28;20234;-79
2023/09/09 03:49:26;;;;;;;6.20;5.70;;;;;;;19.04;76.88;100487.13;4987847;28;20203;-81
2023/09/09 03:51:52;;;;;;;5.60;5.13;;;;;;;19.11;76.54;100496.47;4983237;28;20235;-82
2023/09/09 03:54:19;;;;;;;5.47;5.07;;;;;;;19.18;76.54;100499.63;4983487;28;20322;-82
2023/09/09 03:56:46;;;;;;;5.20;4.70;;;;;;;19.11;76.90;100491.16;4982896;28;20212;-82
2023/09/09 03:59:13;;;;;;;7.63;5.57;;;;;;;19.09;77.18;100487.75;4982104;28;20228;-82
2023/09/09 04:01:39;;;;;;;5.27;4.87;;;;;;;19.16;76.54;100496.19;4984388;28;20219;-82
2023/09/09 04:04:06;;;;;;;5.40;4.97;;;;;;;19.10;76.32;100500.03;4983870;28;20247;-82
2023/09/09 04:06:33;;;;;;;8.80;5.10;;;;;;;19.03;76.11;100515.38;4984003;28;20212;-82
2023/09/09 04:08:59;;;;;;;5.63;5.23;;;;;;;19.06;76.25;100519.66;4982239;28;20204;-81
2023/09/09 04:11:26;;;;;;;5.63;5.23;;;;;;;19.07;76.54;100509.91;4983773;28;20571;-81
2023/09/09 04:13:54;;;;;;;5.43;4.93;;;;;;;19.09;76.31;100516.84;4985107;28;20223;-82
2023/09/09 04:16:20;;;;;;;4.87;4.47;;;;;;;19.04;76.40;100506.50;4983801;28;20215;-81
2023/09/09 04:18:47;;;;;;;5.10;4.80;;;;;;;19.05;76.32;100512.66;4997910;28;20246;-82
2023/09/09 04:21:13;;;;;;;5.13;4.77;;;;;;;18.99;76.45;100520.94;4986290;28;20236;-82
2023/09/09 04:23:40;;;;;;;5.80;5.33;;;;;;;18.94;76.60;100523.78;4982114;28;20224;-82
2023/09/09 04:26:07;;;;;;;6.03;5.63;;;;;;;18.88;77.43;100513.53;4983915;28;20642;-83
2023/09/09 04:28:33;;;;;;;5.40;4.97;;;;;;;18.85;77.18;100508.44;4984844;28;20228;-82
2023/09/09 04:31:02;;;;;;;5.83;5.40;;;;;;;18.87;77.30;100505.69;4984295;28;20600;-82
2023/09/09 04:33:28;;;;;;;6.53;5.90;;;;;;;18.86;76.97;100504.81;4984441;28;20227;-82
2023/09/09 04:35:55;;;;;;;5.93;5.43;;;;;;;18.81;77.79;100507.72;4984466;28;20204;-81
2023/09/09 04:38:23;;;;;;;5.87;5.40;;;;;;;18.79;77.61;100488.44;4984168;28;20216;-81
2023/09/09 04:40:49;;;;;;;5.50;5.00;;;;;;;18.77;77.70;100494.69;4984252;28;20212;-81
2023/09/09 04:43:17;;;;;;;5.67;5.17;;;;;;;18.77;77.81;100492.03;4984167;28;20236;-82
2023/09/09 04:45:44;;;;;;;6.30;5.80;;;;;;;18.75;77.85;100488.63;4983933;28;20223;-82
2023/09/09 04:48:12;;;;;;;6.33;5.70;;;;;;;18.77;77.56;100502.63;4993599;28;20199;-82
2023/09/09 04:50:39;;;;;;;5.73;5.23;;;;;;;18.76;77.73;100509.72;4993816;28;20208;-82
2023/09/09 04:53:06;;;;;;;5.63;5.23;;;;;;;18.70;78.54;100485.38;5001071;28;20291;-82
2023/09/09 04:55:32;;;;;;;5.97;5.37;;;;;;;18.71;78.59;100489.72;4999831;28;20222;-81
2023/09/09 04:57:59;;;;;;;6.10;5.50;;;;;;;18.64;79.07;100475.97;4999020;28;20214;-80
2023/09/09 05:00:25;;;;;;;5.70;5.20;;;;;;;18.67;78.99;100475.78;5005343;28;20227;-81
2023/09/09 05:02:52;;;;;;;6.33;5.73;;;;;;;18.68;78.37;100480.16;5003515;28;20231;-81
2023/09/09 05:05:19;;;;;;;6.10;5.60;;;;;;;18.71;78.41;100484.44;5003696;28;20234;-80
2023/09/09 05:07:46;;;;;;;5.67;5.23;;;;;;;18.74;78.44;100487.78;5005083;28;20210;-81
2023/09/09 05:10:13;;;;;;;5.63;5.20;;;;;;;18.79;78.10;100493.72;5006897;28;20215;-80
2023/09/09 05:12:40;;;;;;;6.60;6.03;;;;;;;18.78;78.46;100496.41;5006487;28;20228;-82
2023/09/09 05:15:10;;;;;;;6.13;5.63;;;;;;;18.68;78.38;100495.19;5007753;28;20207;-81
2023/09/09 05:17:36;;;;;;;5.90;5.50;;;;;;;18.66;78.51;100497.91;5002234;28;20588;-81
2023/09/09 05:20:03;;;;;;;5.97;5.57;;;;;;;18.59;78.87;100488.56;5000115;28;20227;-82
2023/09/09 05:22:31;;;;;;;8.70;8.00;;;;;;;18.60;79.15;100480.56;5004908;28;20234;-82
2023/09/09 05:24:58;;;;;;;8.57;7.90;;;;;;;18.67;78.94;100478.44;5027533;28;20202;-82
2023/09/09 05:27:24;;;;;;;7.93;7.33;;;;;;;18.73;78.62;100478.16;5025247;28;20206;-80
2023/09/09 05:29:51;;;;;;;7.50;6.90;;;;;;;18.77;77.86;100503.50;5021642;28;20673;-80
2023/09/09 05:32:17;;;;;;;7.53;7.00;;;;;;;18.78;77.90;100510.47;5021296;28;20203;-80
2023/09/09 05:34:44;;;;;;;7.03;6.43;;;;;;;18.78;78.19;100504.34;5022980;28;20215;-81
2023/09/09 05:37:10;;;;;;;7.10;6.33;;;;;;;18.76;78.32;100506.22;5024025;28;20213;-81
2023/09/09 05:39:38;;;;;;;6.73;6.17;;;;;;;18.80;77.73;100519.22;4994032;28;20235;-81
2023/09/09 05:42:06;;;;;;;7.20;6.63;;;;;;;18.81;78.44;100514.78;4990462;28;20226;-82
2023/09/09 05:44:34;;;;;;;6.57;6.07;;;;;;;18.78;77.89;100518.41;4986718;28;20211;-82
2023/09/09 05:47:01;;;;;;;7.03;5.93;;;;;;;18.79;78.00;100520.19;4986041;28;20208;-82
2023/09/09 05:49:27;;;;;;;6.77;6.27;;;;;;;18.81;78.31;100515.66;4996961;28;20588;-82
2023/09/09 05:51:54;;;;;;;6.77;6.23;;;;;;;18.83;78.18;100527.00;4984789;28;20212;-82
2023/09/09 05:54:20;;;;;;;7.33;6.77;;;;;;;18.88;78.91;100502.97;4987004;28;20232;-81
2023/09/09 05:56:48;;;;;;;6.43;6.03;;;;;;;18.91;79.08;100494.00;4986476;28;20204;-81
2023/09/09 05:59:14;;;;;;;7.30;6.80;;;;;;;18.93;78.88;100490.34;4985944;28;20228;-82
2023/09/09 06:01:42;;;;;;;7.53;6.37;;;;;;;18.98;79.45;100490.09;4986117;28;20212;-83
2023/09/09 06:04:08;;;;;;;7.93;7.43;;;;;;;19.09;79.51;100492.16;4985360;28;20231;-82
2023/09/09 06:06:35;;;;;;;6.43;5.90;;;;;;;19.12;79.67;100487.56;4986807;28;20624;-81
2023/09/09 06:09:01;;;;;;;6.53;6.03;;;;;;;19.20;80.24;100474.78;4987015;28;20205;-82
2023/09/09 06:11:28;;;;;;;6.37;5.90;;;;;;;19.25;80.44;100470.09;4985307;28;20212;-80
2023/09/09 06:13:56;;;;;;;6.00;5.50;;;;;;;19.17;80.03;100479.41;4983358;28;20235;-81
2023/09/09 06:16:22;;;;;;;6.70;6.20;;;;;;;19.12;80.09;100481.44;4980782;28;20677;-80
2023/09/09 06:18:49;;;;;;;8.07;7.57;;;;;;;19.00;77.54;100533.19;4986524;28;20203;-80
2023/09/09 06:21:15;;;;;;;8.23;7.63;;;;;;;18.89;76.96;100556.72;4986187;28;20208;-80
2023/09/09 06:23:43;;;;;;;8.03;7.43;;;;;;;18.91;77.21;100565.41;4987464;28;20228;-82
2023/09/09 06:26:10;;;;;;;7.90;7.40;;;;;;;19.01;77.12;100572.81;4986185;28;20212;-81
2023/09/09 06:28:37;;;;;;;6.97;6.47;;;;;;;19.11;77.20;100572.31;4986530;28;20279;-82
2023/09/09 06:31:05;;;;;;;8.17;7.47;;;;;;;19.22;79.23;100533.75;4986260;28;20208;-81
2023/09/09 06:33:31;;;;;;;9.13;8.43;;;;;;;19.25;79.26;100515.09;4986110;28;20228;-81
2023/09/09 06:35:57;;;;;;;9.10;8.40;;;;;;;19.29;79.54;100514.94;4986465;28;20678;-82
2023/09/09 06:38:24;;;;;;;11.60;8.60;;;;;;;19.34;79.35;100510.22;4986498;28;20215;-81
2023/09/09 06:40:51;;;;;;;9.60;8.70;;;;;;;19.29;78.20;100529.00;4987062;28;20232;-82
2023/09/09 06:43:19;;;;;;;9.10;8.23;;;;;;;19.07;77.67;100554.88;4986956;28;20236;-82
2023/09/09 06:45:45;;;;;;;8.63;7.97;;;;;;;18.79;79.41;100545.72;4987668;28;20745;-82
2023/09/09 06:48:16;;;;;;;10.20;9.50;;;;;;;18.54;81.58;100503.81;4991623;28;20208;-82
2023/09/09 06:50:44;;;;;;;10.33;9.53;;;;;;;18.24;84.40;100444.50;4980768;28;20207;-83
2023/09/09 06:53:11;;;;;;;11.37;10.57;;;;;;;18.14;86.41;100406.28;4978148;28;20232;-83
2023/09/09 06:55:37;;;;;;;11.80;10.83;;;;;;;18.08;88.24;100360.81;4980109;28;20212;-83
2023/09/09 06:58:04;;;;;;;11.90;10.90;;;;;;;18.14;89.01;100339.41;4980131;28;20219;-81
2023/09/09 07:00:30;;;;;;;11.03;10.30;;;;;;;18.10;88.50;100343.13;4979465;28;20266;-80
2023/09/09 07:02:57;;;;;;;11.27;10.57;;;;;;;18.24;88.66;100337.97;4978621;28;20579;-81
2023/09/09 07:05:25;;;;;;;11.47;10.57;;;;;;;18.19;89.42;100327.63;4979207;28;20302;-79
2023/09/09 07:07:52;;;;;;;10.93;10.13;;;;;;;18.38;88.84;100329.31;4981064;28;20219;-79
2023/09/09 07:10:18;;;;;;;11.57;10.67;;;;;;;18.43;89.29;100329.91;4987414;28;20208;-78
2023/09/09 07:12:45;;;;;;;11.60;10.80;;;;;;;18.54;89.15;100327.56;4992303;28;20232;-79
2023/09/09 07:15:11;;;;;;;12.20;10.40;;;;;;;18.57;89.57;100330.06;4992122;28;20215;-80
2023/09/09 07:17:38;;;;;;;11.30;10.40;;;;;;;18.72;89.49;100331.00;4997728;28;20229;-79
2023/09/09 07:20:07;;;;;;;11.67;10.70;;;;;;;18.75;90.42;100332.59;5005345;28;20228;-80
2023/09/09 07:22:36;;;;;;;11.03;10.23;;;;;;;18.93;89.98;100326.34;4999555;28;20231;-81
2023/09/09 07:25:02;;;;;;;11.60;10.70;;;;;;;19.07;89.81;100335.28;4999485;28;20211;-81
2023/09/09 07:27:28;;;;;;;10.73;9.97;;;;;;;19.20;89.42;100346.91;4999108;28;20212;-80
2023/09/09 07:29:55;;;;;;;10.63;9.83;;;;;;;19.30;89.26;100355.19;4999690;28;20212;-81
2023/09/09 07:32:21;;;;;;;10.73;10.03;;;;;;;19.30;89.05;100363.97;4999450;28;20239;-80
2023/09/09 07:34:48;;;;;;;10.33;9.63;;;;;;;19.43;88.99;100370.28;4999112;28;20211;-80
2023/09/09 07:37:14;;;;;;;10.67;10.03;;;;;;;19.59;89.34;100369.41;4999584;28;20643;-79
2023/09/09 07:39:46;;;;;;;11.07;10.27;;;;;;;19.75;90.52;100358.81;4999089;28;20264;-80
2023/09/09 07:42:13;;;;;;;11.23;10.53;;;;;;;19.96;91.00;100352.25;4998043;28;20235;-80
2023/09/09 07:44:40;;;;;;;11.33;10.43;;;;;;;20.06;91.14;100349.91;4999088;28;20678;-80
2023/09/09 07:47:07;;;;;;;10.70;9.87;;;;;;;20.13;90.49;100358.31;4997680;28;20203;-81
2023/09/09 07:49:34;;;;;;;11.60;10.50;;;;;;;20.31;89.85;100377.56;4987176;28;20203;-81
2023/09/09 07:52:00;;;;;;;11.03;10.33;;;;;;;20.40;89.53;100379.66;4975815;28;20231;-81
2023/09/09 07:54:27;;;;;;;11.40;10.50;;;;;;;20.46;90.36;100384.59;4975739;28;20207;-81
2023/09/09 07:56:55;;;;;;;11.07;10.07;;;;;;;20.47;91.26;100370.38;4975210;28;20215;-81
2023/09/09 07:59:22;;;;;;;12.13;10.90;;;;;;;20.56;91.66;100363.66;4975841;28;20204;-83
2023/09/09 08:01:49;;;;;;;11.43;10.53;;;;;;;20.71;90.57;100381.28;4975330;28;20222;-80
2023/09/09 08:04:15;;;;;;;10.80;10.03;;;;;;;20.86;88.89;100402.53;4975979;28;20282;-84
2023/09/09 08:06:42;;;;;;;10.53;9.83;;;;;;;20.94;87.85;100422.31;4975356;28;20211;-83
2023/09/09 08:09:08;;;;;;;10.27;9.57;;;;;;;21.15;86.50;100457.28;4975945;28;20236;-84
2023/09/09 08:11:34;;;;;;;9.73;8.97;;;;;;;21.34;86.84;100478.19;4976021;28;20215;-81
2023/09/09 08:14:02;;;;;;;9.23;8.53;;;;;;;21.49;83.71;100510.94;4975797;28;20239;-82
2023/09/09 08:16:30;;;;;;;9.00;8.33;;;;;;;21.71;83.17;100541.47;4976327;28;20211;-82
2023/09/09 08:18:56;;;;;;;8.27;7.77;;;;;;;21.86;80.65;100582.13;4991286;28;20199;-81
2023/09/09 08:21:23;;;;;;;8.40;7.80;;;;;;;22.12;79.50;100625.66;4996297;28;20227;-82
2023/09/09 08:23:50;;;;;;;8.30;7.70;;;;;;;22.32;78.52;100657.19;4998613;28;20235;-83
2023/09/09 08:26:16;;;;;;;7.13;6.63;;;;;;;22.48;76.89;100694.28;4996926;28;20210;-83
2023/09/09 08:28:43;;;;;;;8.00;7.40;;;;;;;22.65;76.88;100709.13;4995690;28;20214;-82
2023/09/09 08:31:10;;;;;;;7.30;6.70;;;;;;;22.79;77.64;100697.56;4995535;28;20199;-82
2023/09/09 08:33:37;;;;;;;6.50;6.10;;;;;;;22.86;75.76;100733.50;4994205;28;20275;-82
2023/09/09 08:36:04;;;;;;;7.53;6.93;;;;;;;22.98;74.98;100748.66;4994541;28;20217;-82
2023/09/09 08:38:31;;;;;;;6.63;6.27;;;;;;;23.13;73.88;100786.78;4994246;28;20211;-80
2023/09/09 08:41:09;;;;;;;7.40;6.90;;;;;;;23.22;73.00;100816.41;4994080;28;20239;-82
2023/09/09 08:43:46;;;;;;;7.00;6.30;;;;;;;23.26;72.44;100823.25;4993956;28;20235;-82
2023/09/09 08:46:16;;;;;;;6.90;6.20;;;;;;;23.34;73.42;100823.59;4993805;28;20619;-83
2023/09/09 08:48:44;;;;;;;6.00;5.50;;;;;;;23.44;73.05;100818.50;4985699;28;20801;-83
2023/09/09 08:51:14;;;;;;;6.10;5.70;;;;;;;23.48;71.83;100847.50;4981276;28;20208;-83
2023/09/09 08:53:41;;;;;;;8.43;5.27;;;;;;;23.57;71.36;100856.72;4974190;28;20275;-82
2023/09/09 08:56:08;;;;;;;6.30;6.00;;;;;;;23.70;71.27;100852.22;4974047;28;20204;-82
2023/09/09 08:58:35;;;;;;;5.77;5.37;;;;;;;23.79;69.85;100907.66;4973706;28;20216;-80
2023/09/09 09:01:01;;;;;;;6.03;5.47;;;;;;;23.82;68.98;100903.06;4973926;28;20251;-83
2023/09/09 09:03:32;;;;;;;6.17;5.13;;;;;;;23.88;67.53;100940.81;4973718;28;20231;-83
2023/09/09 09:06:01;;;;;;;5.87;5.37;;;;;;;24.01;66.11;100993.38;4975302;28;20193;-83
2023/09/09 09:08:27;;;;;;;5.47;4.90;;;;;;;24.17;66.21;101013.56;4975951;28;20208;-82
2023/09/09 09:10:56;;;;;;;6.83;6.10;;;;;;;24.27;66.80;101026.28;4977149;28;20208;-82
2023/09/09 09:13:23;;;;;;;5.70;5.40;;;;;;;24.31;64.54;101019.78;4974274;28;20737;-83
2023/09/09 09:15:49;;;;;;;5.97;5.27;;;;;;;24.36;65.86;101061.22;4973725;28;20207;-83
2023/09/09 09:18:16;;;;;;;5.83;5.33;;;;;;;24.53;64.46;101077.94;4978466;28;20208;-82
2023/09/09 09:20:44;;;;;;;5.90;4.80;;;;;;;24.60;62.55;101113.94;4989892;28;20234;-82
2023/09/09 09:23:12;;;;;;;5.33;5.03;;;;;;;24.76;61.30;101129.78;5007360;28;20254;-82
2023/09/09 09:25:42;;;;;;;5.23;4.80;;;;;;;24.93;60.11;101188.22;5012029;28;20253;-82
2023/09/09 09:28:08;;;;;;;7.80;4.80;;;;;;;25.07;58.07;101238.06;5012766;28;20278;-83
2023/09/09 09:30:35;;;;;;;5.03;4.53;;;;;;;25.14;58.30;101257.22;5012349;28;20208;-80
2023/09/09 09:33:03;;;;;;;5.27;4.97;;;;;;;25.27;58.88;101266.16;5012514;28;20235;-82
2023/09/09 09:35:31;;;;;;;6.37;5.83;;;;;;;25.30;58.97;101233.88;5012637;28;20218;-82
2023/09/09 09:38:00;;;;;;;5.10;4.80;;;;;;;25.32;57.59;101266.69;5012610;28;20214;-82
2023/09/09 09:40:27;;;;;;;8.50;4.90;;;;;;;25.42;56.80;101284.78;5012437;28;20235;-82
2023/09/09 09:42:54;;;;;;;4.30;4.00;;;;;;;25.47;54.95;101320.06;5012116;28;20235;-82
2023/09/09 09:45:24;;;;;;;7.40;4.50;;;;;;;25.55;56.41;101307.06;5014283;28;20239;-82
2023/09/09 09:47:51;;;;;;;4.47;4.07;;;;;;;25.55;56.01;101273.16;5009243;28;20219;-82
2023/09/09 09:50:19;;;;;;;7.93;4.67;;;;;;;25.58;56.68;101296.13;4990895;28;20207;-82
2023/09/09 09:52:57;;;;;;;4.47;4.10;;;;;;;25.58;53.86;101317.53;4976084;28;20716;-82
2023/09/09 09:55:25;;;;;;;4.53;4.23;;;;;;;25.75;52.71;101381.41;4976650;28;20239;-83
2023/09/09 09:57:54;;;;;;;9.73;4.60;;;;;;;25.84;55.61;101387.94;4976647;28;20219;-82
2023/09/09 10:00:22;;;;;;;4.80;4.50;;;;;;;25.94;53.03;101412.28;4976979;28;20235;-82
2023/09/09 10:02:53;;;;;;;4.70;4.40;;;;;;;26.02;52.00;101385.00;4976799;28;20242;-82
2023/09/09 10:05:22;;;;;;;17.93;7.00;;;;;;;26.15;53.08;101440.25;4977081;28;20246;-82
2023/09/09 10:07:52;;;;;;;4.77;4.47;;;;;;;26.19;51.98;101458.81;4977000;28;20208;-81
2023/09/09 10:10:22;;;;;;;7.73;4.03;;;;;;;26.28;49.98;101463.50;4976442;28;20227;-82
2023/09/09 10:12:53;;;;;;;4.90;4.50;;;;;;;26.35;49.20;101487.06;4976188;28;20240;-82
2023/09/09 10:15:21;;;;;;;4.97;4.47;;;;;;;26.39;49.83;101522.53;4976114;28;20220;-82
2023/09/09 10:17:50;;;;;;;5.13;4.63;;;;;;;26.40;51.50;101480.53;4980329;28;20639;-82
2023/09/09 10:20:18;;;;;;;4.47;4.17;;;;;;;26.36;49.85;101471.84;4989357;28;20228;-82
2023/09/09 10:22:45;;;;;;;4.93;4.53;;;;;;;26.51;50.25;101494.91;4990978;28;20231;-82
2023/09/09 10:25:12;;;;;;;4.80;4.50;;;;;;;26.59;47.93;101496.22;4988391;28;20200;-81
2023/09/09 10:27:39;;;;;;;5.77;4.90;;;;;;;26.70;50.02;101485.59;4984210;28;20674;-81
2023/09/09 10:30:08;;;;;;;4.57;4.27;;;;;;;26.69;47.18;101521.41;4984154;28;20691;-86
2023/09/09 10:32:35;;;;;;;6.83;4.57;;;;;;;26.80;46.37;101566.19;4985535;28;20227;-82
2023/09/09 10:35:04;;;;;;;4.90;4.50;;;;;;;26.93;46.85;101559.84;4985802;28;20250;-82
2023/09/09 10:37:34;;;;;;;4.90;4.50;;;;;;;27.03;51.33;101502.94;4984701;28;20665;-82
2023/09/09 10:40:02;;;;;;;5.03;4.63;;;;;;;27.04;49.06;101484.06;4985741;28;20200;-82
2023/09/09 10:42:30;;;;;;;5.37;4.73;;;;;;;27.07;49.68;101457.03;4984006;28;20275;-82
2023/09/09 10:45:18;;;;;;;4.53;4.03;;;;;;;27.17;47.85;101456.38;4986925;28;20247;-82
2023/09/09 10:47:54;;;;;;;4.57;4.23;;;;;;;27.20;47.00;101512.47;4984854;28;20195;-82
2023/09/09 10:50:21;;;;;;;5.23;4.20;;;;;;;27.27;49.16;101479.72;4985688;28;20207;-82
2023/09/09 10:52:51;;;;;;;4.50;4.20;;;;;;;27.37;45.72;101530.88;4985917;28;20250;-83
2023/09/09 10:55:19;;;;;;;3.97;3.67;;;;;;;27.39;44.34;101606.69;4986581;28;20206;-82
2023/09/09 10:57:57;;;;;;;4.73;4.43;;;;;;;27.50;44.40;101654.22;4986008;28;20196;-81
2023/09/09 11:00:38;;;;;;;4.50;4.30;;;;;;;27.50;43.74;101656.91;4978951;28;20215;-82
2023/09/09 11:03:11;;;;;;;4.37;4.07;;;;;;;27.56;43.35;101696.72;4975988;28;20258;-81
2023/09/09 11:05:57;;;;;;;5.27;3.93;;;;;;;27.62;42.02;101715.03;4976050;28;20215;-82
2023/09/09 11:08:36;;;;;;;4.60;4.20;;;;;;;27.77;43.60;101707.75;4975979;28;20204;-81
2023/09/09 11:11:14;;;;;;;9.57;4.33;;;;;;;27.90;43.31;101708.59;4975873;28;20208;-81
2023/09/09 11:13:43;;;;;;;4.77;4.37;;;;;;;28.04;43.02;101712.97;4980859;28;20223;-81
2023/09/09 11:16:24;;;;;;;4.00;3.73;;;;;;;28.04;42.60;101707.59;4986278;28;20203;-82
2023/09/09 11:18:54;;;;;;;4.20;3.90;;;;;;;28.28;43.14;101696.88;4987410;28;20208;-82
2023/09/09 11:21:21;;;;;;;4.27;3.93;;;;;;;28.44;42.55;101699.28;4988500;28;20694;-82
2023/09/09 11:23:49;;;;;;;4.67;4.23;;;;;;;28.60;41.83;101709.78;4989012;28;20223;-82
2023/09/09 11:26:15;;;;;;;4.43;4.13;;;;;;;28.79;42.71;101729.91;4990092;28;20223;-82